Time;durP1;ratioP1;P1;durP2;ratioP2;P2;SDS_P1;SDS_P2;PMS_P1;PMS_P2;Temp;Humidity;BMP_temperature;BMP_pressure;BME280_temperature;BME280_humidity;BME280_pressure;Samples;Min_cycle;Max_cycle;Signal;HPM_P1;HPM_P2
2023/04/20 00:00:46;;;;;;;6.53;5.93;;;10.60;87.40;10.60;96285.00;;;;5019367;28;20213;-79
2023/04/20 00:03:13;;;;;;;6.30;5.63;;;10.60;87.50;10.60;96284.00;;;;4999839;28;20649;-79
2023/04/20 00:05:40;;;;;;;6.00;5.57;;;10.60;87.50;10.60;96278.00;;;;5010399;28;20200;-79
2023/04/20 00:08:08;;;;;;;6.63;5.80;;;10.60;87.60;10.60;96266.00;;;;4992261;28;20222;-79
2023/04/20 00:10:35;;;;;;;6.70;6.00;;;10.60;87.60;10.60;96272.00;;;;5020436;28;20319;-79
2023/04/20 00:13:02;;;;;;;6.77;5.90;;;10.60;87.60;10.60;96267.00;;;;5012536;28;20253;-79
2023/04/20 00:15:31;;;;;;;6.03;5.43;;;10.60;87.30;10.60;96265.00;;;;5011408;28;20290;-79
2023/04/20 00:17:58;;;;;;;6.83;6.23;;;10.60;87.20;10.60;96268.00;;;;5011167;28;20284;-79
2023/04/20 00:20:26;;;;;;;5.67;5.27;;;10.60;87.20;10.60;96257.00;;;;5006362;28;20206;-79
2023/04/20 00:22:53;;;;;;;7.40;5.97;;;10.60;87.10;10.60;96258.00;;;;5011668;28;20222;-79
2023/04/20 00:25:21;;;;;;;6.80;6.10;;;10.60;87.00;10.60;96257.00;;;;5014377;28;20229;-78
2023/04/20 00:27:48;;;;;;;6.97;6.27;;;10.60;86.80;10.60;96250.00;;;;5012091;28;20241;-79
2023/04/20 00:30:16;;;;;;;6.40;5.80;;;10.60;86.90;10.60;96248.00;;;;4987004;28;20292;-79
2023/04/20 00:32:46;;;;;;;6.13;5.53;;;10.60;86.90;10.60;96252.00;;;;5012165;28;20217;-79
2023/04/20 00:35:13;;;;;;;6.70;6.00;;;10.60;87.00;10.60;96251.00;;;;5012120;28;20281;-79
2023/04/20 00:37:42;;;;;;;6.50;5.90;;;10.60;86.40;10.60;96246.00;;;;5018435;28;20205;-79
2023/04/20 00:40:10;;;;;;;6.87;6.17;;;10.60;86.40;10.50;96241.00;;;;5009899;28;20277;-79
2023/04/20 00:42:39;;;;;;;6.87;6.23;;;10.50;86.50;10.50;96245.00;;;;4992539;28;20218;-79
2023/04/20 00:45:09;;;;;;;6.80;6.20;;;10.50;86.50;10.50;96239.00;;;;5009149;28;20198;-79
2023/04/20 00:47:40;;;;;;;7.13;6.43;;;10.50;86.30;10.50;96234.00;;;;5018094;28;20632;-79
2023/04/20 00:50:11;;;;;;;6.77;6.00;;;10.50;86.20;10.50;96222.00;;;;5006919;28;20278;-79
2023/04/20 00:52:40;;;;;;;6.90;6.17;;;10.50;86.20;10.50;96221.00;;;;5020892;28;20647;-79
2023/04/20 00:55:10;;;;;;;6.73;6.10;;;10.50;86.40;10.40;96218.00;;;;5015793;28;20192;-79
2023/04/20 00:57:39;;;;;;;7.03;6.43;;;10.40;86.30;10.40;96214.00;;;;5014810;28;20667;-79
2023/04/20 01:00:09;;;;;;;7.50;6.47;;;10.40;86.20;10.40;96217.00;;;;5013821;28;20284;-79
2023/04/20 01:02:37;;;;;;;6.90;6.20;;;10.40;86.50;10.40;96216.00;;;;4996960;28;20302;-80
2023/04/20 01:05:05;;;;;;;10.03;7.50;;;10.40;86.20;10.40;96208.00;;;;4995625;28;20755;-79
2023/04/20 01:07:34;;;;;;;8.83;7.77;;;10.40;86.30;10.40;96209.00;;;;5010926;28;20293;-79
2023/04/20 01:10:02;;;;;;;7.77;7.07;;;10.40;86.50;10.40;96197.00;;;;5012302;28;20201;-79
2023/04/20 01:12:30;;;;;;;7.83;7.03;;;10.40;86.60;10.40;96197.00;;;;5004491;28;20225;-79
2023/04/20 01:14:57;;;;;;;8.40;7.13;;;10.40;86.70;10.40;96198.00;;;;5014586;28;20190;-79
2023/04/20 01:17:24;;;;;;;7.83;7.03;;;10.40;86.70;10.40;96193.00;;;;5025109;28;20244;-79
2023/04/20 01:19:51;;;;;;;7.77;7.03;;;10.40;86.80;10.40;96194.00;;;;5026036;28;20297;-79
2023/04/20 01:22:21;;;;;;;8.70;7.13;;;10.40;87.00;10.40;96193.00;;;;5009439;28;20236;-79
2023/04/20 01:24:49;;;;;;;7.90;7.10;;;10.40;87.10;10.40;96188.00;;;;5016774;28;20198;-79
2023/04/20 01:27:16;;;;;;;8.33;7.40;;;10.40;87.20;10.40;96187.00;;;;5020089;28;20726;-79
2023/04/20 01:29:44;;;;;;;7.67;6.97;;;10.40;87.10;10.40;96179.00;;;;5013695;28;20264;-79
2023/04/20 01:32:13;;;;;;;7.63;6.90;;;10.40;87.00;10.40;96188.00;;;;5030188;28;20705;-79
2023/04/20 01:34:41;;;;;;;8.97;7.70;;;10.40;86.80;10.40;96181.00;;;;5020268;28;20221;-79
2023/04/20 01:37:09;;;;;;;7.97;7.17;;;10.40;86.90;10.40;96166.00;;;;5006761;28;20220;-79
2023/04/20 01:39:39;;;;;;;9.30;8.40;;;10.40;87.00;10.40;96164.00;;;;5021076;28;20307;-79
2023/04/20 01:42:07;;;;;;;8.30;7.47;;;10.40;86.70;10.40;96170.00;;;;5021850;28;20299;-79
2023/04/20 01:44:35;;;;;;;8.47;7.67;;;10.40;86.60;10.40;96168.00;;;;5014113;28;20281;-79
2023/04/20 01:47:02;;;;;;;8.30;7.37;;;10.40;86.50;10.40;96162.00;;;;4996279;28;20280;-79
2023/04/20 01:49:31;;;;;;;8.63;7.83;;;10.40;86.60;10.40;96163.00;;;;4996529;28;20285;-79
2023/04/20 01:51:58;;;;;;;7.67;6.97;;;10.40;86.70;10.30;96168.00;;;;5002451;28;20805;-80
2023/04/20 01:54:25;;;;;;;7.73;6.97;;;10.40;86.80;10.40;96169.00;;;;5026503;28;20229;-79
2023/04/20 01:56:56;;;;;;;7.83;7.10;;;10.40;86.90;10.40;96165.00;;;;5015375;28;20208;-79
2023/04/20 01:59:24;;;;;;;8.33;7.53;;;10.40;87.00;10.40;96164.00;;;;5024745;28;20197;-79
2023/04/20 02:01:51;;;;;;;7.90;7.10;;;10.40;87.30;10.40;96164.00;;;;5024002;28;20202;-79
2023/04/20 02:04:18;;;;;;;8.27;7.47;;;10.40;87.30;10.40;96158.00;;;;5007197;28;20222;-79
2023/04/20 02:06:45;;;;;;;8.07;7.23;;;10.40;87.30;10.40;96156.00;;;;5004635;28;20237;-79
2023/04/20 02:09:12;;;;;;;8.53;7.73;;;10.40;87.10;10.40;96156.00;;;;5016599;28;20257;-79
2023/04/20 02:11:40;;;;;;;8.37;7.43;;;10.40;87.10;10.40;96148.00;;;;5026017;28;20228;-79
2023/04/20 02:14:08;;;;;;;8.27;7.47;;;10.40;87.00;10.40;96152.00;;;;5021317;28;20658;-79
2023/04/20 02:16:36;;;;;;;8.23;7.27;;;10.40;86.90;10.40;96149.00;;;;5026824;28;20288;-79
2023/04/20 02:19:05;;;;;;;11.27;7.80;;;10.40;86.90;10.40;96149.00;;;;5021810;28;20224;-79
2023/04/20 02:21:32;;;;;;;8.30;7.60;;;10.40;86.80;10.40;96150.00;;;;5025024;28;20209;-79
2023/04/20 02:24:00;;;;;;;8.60;7.80;;;10.40;86.90;10.40;96152.00;;;;5019028;28;20222;-79
2023/04/20 02:26:27;;;;;;;8.90;7.57;;;10.40;87.00;10.40;96159.00;;;;5016194;28;20209;-79
2023/04/20 02:28:54;;;;;;;8.83;7.93;;;10.40;87.20;10.50;96151.00;;;;5022877;28;20288;-79
2023/04/20 02:31:23;;;;;;;9.43;8.53;;;10.40;87.20;10.50;96147.00;;;;5023540;28;20241;-79
2023/04/20 02:33:51;;;;;;;9.23;8.33;;;10.40;87.30;10.50;96133.00;;;;5012670;28;20301;-79
2023/04/20 02:36:18;;;;;;;9.80;8.80;;;10.50;87.50;10.50;96147.00;;;;4994199;28;20244;-79
2023/04/20 02:38:45;;;;;;;9.30;8.43;;;10.50;88.30;10.50;96144.00;;;;4999938;28;20207;-79
2023/04/20 02:41:12;;;;;;;9.73;8.73;;;10.50;87.50;10.50;96152.00;;;;5020599;28;20285;-79
2023/04/20 02:43:39;;;;;;;9.67;8.77;;;10.50;87.40;10.50;96141.00;;;;5020984;28;20224;-79
2023/04/20 02:46:07;;;;;;;10.07;8.73;;;10.50;87.20;10.50;96148.00;;;;5019349;28;20681;-79
2023/04/20 02:48:35;;;;;;;9.13;8.17;;;10.50;87.00;10.50;96144.00;;;;5032026;28;20224;-79
2023/04/20 02:51:03;;;;;;;11.40;9.00;;;10.50;86.80;10.50;96143.00;;;;5017793;28;20194;-79
2023/04/20 02:53:30;;;;;;;8.90;8.10;;;10.50;86.80;10.50;96136.00;;;;4998234;28;20229;-79
2023/04/20 02:55:57;;;;;;;11.30;8.80;;;10.50;86.70;10.50;96128.00;;;;4996503;28;20194;-79
2023/04/20 02:58:25;;;;;;;9.80;8.80;;;10.50;86.70;10.50;96131.00;;;;5023805;28;20678;-79
2023/04/20 03:00:52;;;;;;;9.70;8.70;;;10.50;86.70;10.50;96134.00;;;;5017258;28;20276;-79
2023/04/20 03:03:20;;;;;;;9.80;8.83;;;10.50;86.60;10.50;96132.00;;;;5019113;28;20232;-79
2023/04/20 03:05:49;;;;;;;10.33;8.53;;;10.50;87.30;10.50;96131.00;;;;5016816;28;20202;-79
2023/04/20 03:08:16;;;;;;;9.97;8.97;;;10.50;86.60;10.50;96128.00;;;;5007470;28;20204;-79
2023/04/20 03:10:43;;;;;;;9.23;8.03;;;10.50;86.50;10.50;96123.00;;;;5021054;28;20207;-79
2023/04/20 03:13:10;;;;;;;8.93;8.13;;;10.50;86.50;10.50;96133.00;;;;5026972;28;20229;-79
2023/04/20 03:15:37;;;;;;;9.83;8.67;;;10.50;86.60;10.50;96117.00;;;;5021902;28;20194;-79
2023/04/20 03:18:05;;;;;;;9.50;8.50;;;10.50;86.70;10.50;96114.00;;;;5019567;28;20285;-79
2023/04/20 03:20:32;;;;;;;10.37;9.10;;;10.50;86.80;10.50;96120.00;;;;5002982;28;20700;-79
2023/04/20 03:23:01;;;;;;;10.07;9.07;;;10.50;86.70;10.50;96112.00;;;;5018026;28;20253;-79
2023/04/20 03:25:29;;;;;;;9.77;8.40;;;10.50;86.60;10.60;96116.00;;;;5020192;28;20265;-79
2023/04/20 03:27:56;;;;;;;10.37;8.90;;;10.50;86.70;10.60;96125.00;;;;5011442;28;20217;-79
2023/04/20 03:30:23;;;;;;;10.03;9.03;;;10.60;86.80;10.60;96126.00;;;;5013666;28;20202;-79
2023/04/20 03:32:50;;;;;;;11.23;9.03;;;10.60;86.80;10.60;96124.00;;;;5017299;28;20249;-79
2023/04/20 03:35:19;;;;;;;10.67;9.57;;;10.60;86.80;10.60;96115.00;;;;5003502;28;20194;-79
2023/04/20 03:37:46;;;;;;;9.87;8.97;;;10.60;86.70;10.60;96119.00;;;;5012136;28;20614;-79
2023/04/20 03:40:15;;;;;;;10.57;9.47;;;10.60;86.70;10.60;96120.00;;;;5016168;28;20200;-79
2023/04/20 03:42:42;;;;;;;10.07;8.77;;;10.60;86.70;10.60;96125.00;;;;5009760;28;20217;-79
2023/04/20 03:45:10;;;;;;;10.80;9.70;;;10.60;86.80;10.60;96127.00;;;;4999780;28;20206;-79
2023/04/20 03:47:38;;;;;;;10.03;9.03;;;10.60;86.90;10.60;96120.00;;;;5025731;28;20281;-79
2023/04/20 03:50:06;;;;;;;12.37;9.40;;;10.60;86.80;10.60;96118.00;;;;5002395;28;20193;-79
2023/04/20 03:52:34;;;;;;;11.97;9.40;;;10.60;86.60;10.70;96117.00;;;;5013665;28;20313;-79
2023/04/20 03:55:01;;;;;;;11.07;9.60;;;10.60;86.70;10.70;96112.00;;;;5002633;28;20202;-79
2023/04/20 03:57:30;;;;;;;12.07;10.23;;;10.60;86.70;10.70;96107.00;;;;5001636;28;20202;-79
2023/04/20 03:59:57;;;;;;;10.93;9.73;;;10.70;86.90;10.70;96108.00;;;;5018595;28;20661;-79
2023/04/20 04:02:24;;;;;;;11.60;10.13;;;10.70;86.90;10.70;96114.00;;;;4994790;28;20212;-79
2023/04/20 04:04:51;;;;;;;10.83;9.73;;;10.70;86.70;10.70;96107.00;;;;5009597;28;20290;-79
2023/04/20 04:07:22;;;;;;;13.03;10.23;;;10.70;86.50;10.70;96105.00;;;;5018360;28;20209;-79
2023/04/20 04:09:49;;;;;;;11.77;9.50;;;10.70;86.30;10.70;96101.00;;;;5012133;28;20209;-78
2023/04/20 04:12:17;;;;;;;11.77;9.90;;;10.70;86.20;10.70;96104.00;;;;4993454;28;20861;-78
2023/04/20 04:14:46;;;;;;;11.33;9.80;;;10.70;86.10;10.70;96104.00;;;;5018283;28;20558;-79
2023/04/20 04:17:15;;;;;;;11.83;10.00;;;10.70;86.10;10.70;96110.00;;;;5024675;28;20364;-78
2023/04/20 04:19:42;;;;;;;11.00;9.77;;;10.70;86.20;10.70;96107.00;;;;5009328;28;20585;-78
2023/04/20 04:22:10;;;;;;;11.70;10.50;;;10.70;86.20;10.70;96101.00;;;;5016613;28;20244;-78
2023/04/20 04:24:37;;;;;;;10.83;9.73;;;10.70;86.10;10.70;96095.00;;;;5029161;28;20646;-78
2023/04/20 04:27:06;;;;;;;11.53;9.33;;;10.70;86.00;10.70;96097.00;;;;5015118;28;20726;-78
2023/04/20 04:29:34;;;;;;;12.27;10.00;;;10.70;86.00;10.70;96095.00;;;;5022731;28;20198;-78
2023/04/20 04:32:04;;;;;;;10.40;9.30;;;10.70;86.00;10.70;96099.00;;;;5012568;28;20661;-78
2023/04/20 04:34:32;;;;;;;9.73;8.73;;;10.70;86.10;10.70;96095.00;;;;5014572;28;20210;-78
2023/04/20 04:36:59;;;;;;;9.33;8.37;;;10.70;86.00;10.70;96100.00;;;;5025525;28;20251;-78
2023/04/20 04:39:27;;;;;;;7.40;6.67;;;10.70;85.70;10.70;96105.00;;;;5019065;28;20201;-78
2023/04/20 04:41:56;;;;;;;11.63;7.33;;;10.70;85.40;10.70;96104.00;;;;5015158;28;20202;-78
2023/04/20 04:44:24;;;;;;;6.73;5.97;;;10.70;85.30;10.60;96100.00;;;;5023158;28;20313;-78
2023/04/20 04:46:52;;;;;;;9.83;6.33;;;10.70;85.40;10.60;96105.00;;;;5015649;28;20667;-78
2023/04/20 04:49:23;;;;;;;6.80;6.20;;;10.70;85.50;10.60;96098.00;;;;5016221;28;20198;-78
2023/04/20 04:51:50;;;;;;;7.23;6.53;;;10.70;85.50;10.60;96099.00;;;;4998679;28;20205;-78
2023/04/20 04:54:18;;;;;;;7.97;6.63;;;10.70;85.50;10.60;96092.00;;;;5016974;28;20701;-78
2023/04/20 04:56:45;;;;;;;7.33;6.57;;;10.60;85.40;10.60;96098.00;;;;4999242;28;20194;-78
2023/04/20 04:59:12;;;;;;;7.27;6.57;;;10.60;85.50;10.60;96103.00;;;;5027677;28;20204;-78
2023/04/20 05:01:40;;;;;;;7.03;6.33;;;10.70;85.40;10.60;96095.00;;;;5027487;28;20236;-78
2023/04/20 05:04:07;;;;;;;6.80;6.13;;;10.60;85.00;10.60;96097.00;;;;5018192;28;20586;-78
2023/04/20 05:06:36;;;;;;;6.27;5.67;;;10.60;85.00;10.50;96098.00;;;;5026657;28;20197;-78
2023/04/20 05:09:03;;;;;;;5.83;5.33;;;10.60;85.00;10.60;96106.00;;;;5017580;28;20216;-77
2023/04/20 05:11:31;;;;;;;5.60;5.10;;;10.60;85.20;10.50;96103.00;;;;5014292;28;20289;-78
2023/04/20 05:13:59;;;;;;;5.40;4.97;;;10.60;85.40;10.50;96100.00;;;;5026521;28;20256;-78
2023/04/20 05:16:26;;;;;;;4.67;4.27;;;10.60;85.40;10.50;96106.00;;;;5026976;28;20198;-77
2023/04/20 05:18:53;;;;;;;5.63;4.67;;;10.60;85.20;10.50;96101.00;;;;5037172;28;20257;-78
2023/04/20 05:21:21;;;;;;;4.43;4.03;;;10.50;85.20;10.50;96107.00;;;;5038399;28;20270;-78
2023/04/20 05:23:49;;;;;;;4.50;4.20;;;10.60;85.20;10.50;96101.00;;;;5021253;28;20228;-78
2023/04/20 05:26:17;;;;;;;4.80;4.40;;;10.50;85.20;10.50;96104.00;;;;5027466;28;20202;-78
2023/04/20 05:28:44;;;;;;;4.60;4.20;;;10.60;85.20;10.50;96108.00;;;;5024298;28;20214;-78
2023/04/20 05:31:12;;;;;;;4.67;4.27;;;10.60;85.40;10.50;96111.00;;;;5013270;28;20198;-79
2023/04/20 05:33:39;;;;;;;7.53;4.20;;;10.60;85.40;10.50;96110.00;;;;5027583;28;20300;-79
2023/04/20 05:36:10;;;;;;;4.27;3.87;;;10.60;85.40;10.50;96099.00;;;;5025282;28;20237;-78
2023/04/20 05:38:37;;;;;;;5.33;4.53;;;10.60;85.20;10.50;96093.00;;;;5016527;28;20281;-78
2023/04/20 05:41:06;;;;;;;4.47;4.07;;;10.60;85.20;10.50;96099.00;;;;5017930;28;20205;-78
2023/04/20 05:43:33;;;;;;;5.00;4.10;;;10.60;85.30;10.50;96104.00;;;;5000528;28;20249;-80
2023/04/20 05:46:01;;;;;;;4.60;4.20;;;10.60;85.50;10.60;96099.00;;;;5016878;28;20225;-79
2023/04/20 05:48:28;;;;;;;4.93;4.40;;;10.60;85.40;10.60;96104.00;;;;5026943;28;20747;-80
2023/04/20 05:50:55;;;;;;;5.07;4.67;;;10.60;85.40;10.70;96100.00;;;;5023973;28;20193;-80
2023/04/20 05:53:22;;;;;;;5.20;4.70;;;10.60;85.50;10.70;96102.00;;;;5022835;28;20312;-80
2023/04/20 05:55:50;;;;;;;5.93;4.73;;;10.60;85.70;10.80;96096.00;;;;5022225;28;20213;-80
2023/04/20 05:58:18;;;;;;;4.50;4.10;;;10.60;85.90;10.90;96095.00;;;;4978630;28;20198;-79
2023/04/20 06:00:46;;;;;;;4.33;4.00;;;10.70;86.00;10.90;96097.00;;;;4994882;28;20205;-79
2023/04/20 06:03:14;;;;;;;4.60;4.20;;;10.70;85.60;10.90;96093.00;;;;5015676;28;20236;-79
2023/04/20 06:05:41;;;;;;;5.00;4.60;;;10.80;85.60;11.00;96092.00;;;;5016226;28;20288;-80
2023/04/20 06:08:08;;;;;;;5.53;5.03;;;10.80;85.40;11.00;96094.00;;;;5015734;28;20585;-80
2023/04/20 06:10:36;;;;;;;4.80;4.40;;;10.80;85.60;11.00;96097.00;;;;5016737;28;20206;-78
2023/04/20 06:13:03;;;;;;;5.13;4.50;;;10.80;85.60;11.10;96097.00;;;;5015643;28;20341;-80
2023/04/20 06:15:32;;;;;;;5.00;4.60;;;10.80;85.70;11.10;96093.00;;;;5015114;28;20634;-80
2023/04/20 06:18:00;;;;;;;4.53;4.13;;;10.90;85.80;11.10;96098.00;;;;4979007;28;20186;-79
2023/04/20 06:20:27;;;;;;;4.60;4.20;;;10.90;85.80;11.20;96106.00;;;;5013496;28;20612;-79
2023/04/20 06:22:55;;;;;;;4.27;3.93;;;10.90;85.70;11.20;96097.00;;;;5012831;28;20301;-79
2023/04/20 06:25:22;;;;;;;4.53;4.13;;;11.00;85.60;11.20;96104.00;;;;5013995;28;20201;-80
2023/04/20 06:27:50;;;;;;;3.97;3.67;;;11.00;85.30;11.20;96108.00;;;;5013350;28;20296;-79
2023/04/20 06:30:17;;;;;;;4.40;3.97;;;11.00;85.00;11.20;96105.00;;;;4997554;28;20194;-78
2023/04/20 06:32:46;;;;;;;4.17;3.63;;;11.00;84.80;11.20;96103.00;;;;5016160;28;20325;-80
2023/04/20 06:35:13;;;;;;;4.23;3.37;;;11.00;84.90;11.20;96106.00;;;;5018629;28;20197;-79
2023/04/20 06:37:40;;;;;;;2.83;2.63;;;11.00;84.80;11.20;96097.00;;;;5014671;28;20213;-80
2023/04/20 06:40:09;;;;;;;3.40;3.10;;;11.00;84.70;11.20;96095.00;;;;4999151;28;20195;-79
2023/04/20 06:42:37;;;;;;;3.10;2.90;;;11.00;84.60;11.10;96091.00;;;;4996434;28;20695;-79
2023/04/20 06:45:05;;;;;;;3.27;3.00;;;11.00;84.50;11.10;96091.00;;;;5015311;28;20194;-80
2023/04/20 06:47:33;;;;;;;3.13;2.90;;;11.00;84.30;11.10;96078.00;;;;5018000;28;20206;-79
2023/04/20 06:50:07;;;;;;;5.80;3.10;;;11.00;84.30;11.10;96073.00;;;;5014670;28;20216;-79
2023/04/20 06:52:35;;;;;;;2.97;2.77;;;11.00;84.90;11.10;96082.00;;;;5015492;28;20295;-80
2023/04/20 06:55:02;;;;;;;3.37;3.07;;;11.00;84.50;11.10;96072.00;;;;5015337;28;20663;-80
2023/04/20 06:57:30;;;;;;;3.30;3.00;;;11.00;84.20;11.10;96073.00;;;;5018501;28;20628;-80
2023/04/20 06:59:58;;;;;;;3.30;3.03;;;11.00;84.30;11.10;96080.00;;;;4999490;28;20236;-80
2023/04/20 07:02:26;;;;;;;3.77;3.47;;;11.00;84.50;11.10;96088.00;;;;5014956;28;20232;-80
2023/04/20 07:05:01;;;;;;;3.73;3.43;;;11.00;84.60;11.10;96082.00;;;;5018473;28;20271;-81
2023/04/20 07:07:29;;;;;;;3.10;2.90;;;11.00;84.40;11.10;96078.00;;;;5019388;28;20206;-80
2023/04/20 07:09:56;;;;;;;3.30;3.10;;;11.00;84.30;11.10;96083.00;;;;4993738;28;20232;-79
2023/04/20 07:12:23;;;;;;;3.63;3.37;;;11.00;84.40;11.10;96068.00;;;;5001822;28;20217;-80
2023/04/20 07:14:51;;;;;;;3.87;3.57;;;10.90;84.30;11.10;96066.00;;;;5018073;28;20640;-80
2023/04/20 07:17:18;;;;;;;4.10;3.80;;;11.00;84.30;11.10;96067.00;;;;5019952;28;20205;-78
2023/04/20 07:19:45;;;;;;;4.47;4.10;;;11.00;84.00;11.00;96067.00;;;;5011729;28;20284;-79
2023/04/20 07:22:14;;;;;;;3.93;3.63;;;11.00;84.30;11.10;96066.00;;;;5002786;28;20214;-79
2023/04/20 07:24:41;;;;;;;4.33;3.93;;;11.00;84.30;11.00;96069.00;;;;5013929;28;20300;-79
2023/04/20 07:27:09;;;;;;;4.17;3.77;;;11.00;84.40;11.10;96075.00;;;;5028477;28;20265;-80
2023/04/20 07:29:37;;;;;;;4.97;3.87;;;11.00;84.30;11.10;96068.00;;;;5031674;28;20735;-80
2023/04/20 07:32:05;;;;;;;3.53;3.33;;;11.00;84.40;11.10;96063.00;;;;5022766;28;20210;-80
2023/04/20 07:34:34;;;;;;;3.77;3.47;;;11.00;84.60;11.10;96065.00;;;;5033186;28;20228;-80
2023/04/20 07:37:02;;;;;;;3.47;3.17;;;11.00;84.50;11.10;96057.00;;;;5026189;28;20224;-80
2023/04/20 07:39:31;;;;;;;4.00;3.50;;;11.00;84.40;11.10;96063.00;;;;5018287;28;20286;-80
2023/04/20 07:42:01;;;;;;;3.90;3.60;;;11.00;85.20;11.10;96076.00;;;;5017037;28;20229;-79
2023/04/20 07:44:28;;;;;;;3.90;3.60;;;11.00;84.40;11.10;96074.00;;;;5017521;28;20214;-79
2023/04/20 07:46:58;;;;;;;3.30;3.07;;;11.00;84.20;11.10;96074.00;;;;5000404;28;20194;-79
2023/04/20 07:49:27;;;;;;;3.80;3.50;;;11.00;84.00;11.10;96069.00;;;;5015632;28;20270;-80
2023/04/20 07:51:54;;;;;;;3.77;3.27;;;11.00;84.10;11.10;96070.00;;;;5020661;28;20202;-80
2023/04/20 07:54:21;;;;;;;3.93;3.53;;;11.00;84.10;11.10;96069.00;;;;4995863;28;20316;-79
2023/04/20 07:56:50;;;;;;;4.00;3.70;;;11.00;84.10;11.10;96074.00;;;;5027537;28;20233;-80
2023/04/20 07:59:17;;;;;;;4.03;3.67;;;11.00;84.30;11.20;96078.00;;;;5004351;28;20197;-80
2023/04/20 08:01:45;;;;;;;3.70;3.40;;;11.00;84.30;11.20;96084.00;;;;5021202;28;20225;-80
2023/04/20 08:04:12;;;;;;;3.57;3.37;;;11.00;84.50;11.20;96088.00;;;;5010673;28;20229;-80
2023/04/20 08:06:42;;;;;;;3.77;3.43;;;11.00;84.60;11.20;96086.00;;;;5000372;28;20198;-80
2023/04/20 08:09:09;;;;;;;3.57;3.37;;;11.00;84.70;11.20;96098.00;;;;5015859;28;20194;-80
2023/04/20 08:11:36;;;;;;;3.70;3.40;;;11.10;84.70;11.20;96094.00;;;;4998175;28;20201;-80
2023/04/20 08:14:05;;;;;;;3.73;3.43;;;11.10;84.50;11.20;96095.00;;;;5000254;28;20229;-80
2023/04/20 08:16:32;;;;;;;5.60;3.87;;;11.10;84.30;11.20;96084.00;;;;5023084;28;20203;-80
2023/04/20 08:19:00;;;;;;;3.93;3.63;;;11.10;84.10;11.20;96091.00;;;;5016782;28;20276;-79
2023/04/20 08:21:27;;;;;;;4.93;3.83;;;11.10;84.10;11.20;96088.00;;;;5019791;28;20198;-79
2023/04/20 08:23:55;;;;;;;4.07;3.77;;;11.10;84.20;11.20;96089.00;;;;5004604;28;20607;-80
2023/04/20 08:26:24;;;;;;;3.97;3.67;;;11.10;84.20;11.20;96088.00;;;;4998699;28;20202;-80
2023/04/20 08:28:52;;;;;;;3.73;3.43;;;11.10;84.20;11.20;96087.00;;;;5027940;28;20255;-80
2023/04/20 08:31:20;;;;;;;4.00;3.70;;;11.10;84.10;11.20;96085.00;;;;5014753;28;20668;-80
2023/04/20 08:33:47;;;;;;;4.87;4.40;;;11.10;84.10;11.20;96076.00;;;;5016687;28;20217;-80
2023/04/20 08:36:15;;;;;;;4.23;3.70;;;11.10;84.30;11.20;96069.00;;;;5018843;28;20252;-80
2023/04/20 08:38:43;;;;;;;3.70;3.40;;;11.10;84.20;11.20;96066.00;;;;5017773;28;20248;-80
2023/04/20 08:41:12;;;;;;;4.10;3.63;;;11.10;84.90;11.30;96064.00;;;;5016243;28;20198;-80
2023/04/20 08:43:40;;;;;;;6.10;3.97;;;11.20;84.40;11.30;96065.00;;;;5022763;28;20220;-80
2023/04/20 08:46:07;;;;;;;4.20;3.90;;;11.10;84.30;11.30;96067.00;;;;5014831;28;20635;-80
2023/04/20 08:48:39;;;;;;;4.60;4.20;;;11.20;84.40;11.30;96060.00;;;;5024325;28;20201;-80
2023/04/20 08:51:07;;;;;;;4.13;3.83;;;11.20;84.60;11.40;96069.00;;;;5018533;28;20205;-80
2023/04/20 08:53:34;;;;;;;4.70;4.30;;;11.20;84.70;11.40;96070.00;;;;5015945;28;20285;-80
2023/04/20 08:56:01;;;;;;;4.23;3.90;;;11.20;84.60;11.40;96071.00;;;;5013729;28;20229;-79
2023/04/20 08:58:34;;;;;;;4.13;3.83;;;11.30;84.60;11.40;96074.00;;;;5012983;28;20663;-80
2023/04/20 09:01:01;;;;;;;4.20;3.90;;;11.30;84.60;11.50;96068.00;;;;5013939;28;20200;-80
2023/04/20 09:03:34;;;;;;;4.27;3.97;;;11.30;84.70;11.50;96070.00;;;;5021234;28;20293;-80
2023/04/20 09:06:03;;;;;;;3.93;3.63;;;11.30;84.60;11.60;96064.00;;;;4994182;28;20194;-80
2023/04/20 09:08:36;;;;;;;4.70;4.37;;;11.40;85.00;11.70;96073.00;;;;4982675;28;20193;-80
2023/04/20 09:11:04;;;;;;;4.27;3.87;;;11.40;84.80;11.70;96082.00;;;;5013612;28;20678;-80
2023/04/20 09:13:31;;;;;;;5.00;4.60;;;11.50;85.10;11.80;96081.00;;;;5001383;28;20222;-80
2023/04/20 09:15:58;;;;;;;4.30;3.93;;;11.50;85.00;11.90;96076.00;;;;5016592;28;20206;-80
2023/04/20 09:18:26;;;;;;;4.23;3.83;;;11.60;85.30;11.90;96078.00;;;;5018021;28;20232;-80
2023/04/20 09:20:53;;;;;;;4.10;3.80;;;11.60;85.40;12.00;96071.00;;;;4999892;28;20201;-80
2023/04/20 09:23:22;;;;;;;3.60;3.30;;;11.70;85.50;12.00;96071.00;;;;5016144;28;20222;-80
2023/04/20 09:25:52;;;;;;;3.80;3.50;;;11.70;85.30;12.10;96053.00;;;;5018407;28;20229;-80
2023/04/20 09:28:20;;;;;;;5.13;4.07;;;11.80;84.90;12.10;96057.00;;;;5016734;28;20216;-80
2023/04/20 09:30:50;;;;;;;3.73;3.43;;;11.80;84.70;12.10;96057.00;;;;5016413;28;20194;-80
2023/04/20 09:33:18;;;;;;;3.67;3.37;;;11.90;84.80;12.20;96059.00;;;;5016067;28;20225;-80
2023/04/20 09:35:46;;;;;;;3.40;3.20;;;11.90;84.50;12.20;96059.00;;;;5016437;28;20229;-80
2023/04/20 09:38:16;;;;;;;3.70;3.40;;;12.00;84.50;12.20;96064.00;;;;5016350;28;20276;-80
2023/04/20 09:40:45;;;;;;;3.30;3.10;;;12.00;84.40;12.30;96064.00;;;;5024003;28;21745;-80
2023/04/20 09:43:19;;;;;;;3.43;3.13;;;12.00;84.60;12.30;96064.00;;;;5015974;28;20220;-80
2023/04/20 09:45:49;;;;;;;3.17;2.97;;;12.10;84.60;12.40;96058.00;;;;5022196;28;20286;-80
2023/04/20 09:48:18;;;;;;;3.07;2.60;;;12.10;84.70;12.40;96062.00;;;;5017924;28;20252;-81
2023/04/20 09:50:46;;;;;;;2.90;2.60;;;12.20;84.80;12.50;96072.00;;;;5020610;28;20202;-81
2023/04/20 09:53:16;;;;;;;2.77;2.57;;;12.20;84.70;12.50;96059.00;;;;5006926;28;20252;-81
2023/04/20 09:55:48;;;;;;;3.20;3.00;;;12.20;84.40;12.50;96069.00;;;;5036286;28;20225;-81
2023/04/20 09:58:24;;;;;;;2.80;2.60;;;12.30;84.40;12.50;96069.00;;;;5007277;28;20198;-81
2023/04/20 10:00:52;;;;;;;3.10;2.90;;;12.30;84.50;12.50;96068.00;;;;5021145;28;20223;-81
2023/04/20 10:03:20;;;;;;;2.90;2.67;;;12.30;84.10;12.50;96074.00;;;;5013542;28;20242;-81
2023/04/20 10:05:48;;;;;;;2.77;2.57;;;12.30;83.70;12.50;96066.00;;;;5021428;28;20225;-81
2023/04/20 10:08:15;;;;;;;2.63;2.43;;;12.30;83.70;12.60;96068.00;;;;5004513;28;20198;-81
2023/04/20 10:10:51;;;;;;;2.90;2.70;;;12.40;83.70;12.60;96055.00;;;;5020364;28;20233;-80
2023/04/20 10:13:20;;;;;;;2.60;2.40;;;12.40;83.30;12.60;96055.00;;;;5024969;28;20221;-81
2023/04/20 10:15:47;;;;;;;2.60;2.40;;;12.40;83.40;12.70;96051.00;;;;5030341;28;20202;-81
2023/04/20 10:18:22;;;;;;;2.37;2.27;;;12.40;83.20;12.60;96042.00;;;;5007363;28;20284;-80
2023/04/20 10:20:50;;;;;;;2.70;2.53;;;12.40;82.50;12.70;96039.00;;;;5026153;28;20289;-81
2023/04/20 10:23:18;;;;;;;3.17;2.73;;;12.40;83.30;12.70;96035.00;;;;5018575;28;20248;-81
2023/04/20 10:25:58;;;;;;;2.70;2.50;;;12.40;83.60;12.80;96028.00;;;;5023200;28;20199;-81
2023/04/20 10:28:39;;;;;;;2.90;2.70;;;12.50;83.30;12.90;96032.00;;;;5015237;28;20857;-81
2023/04/20 10:31:11;;;;;;;2.90;2.70;;;12.50;83.40;13.00;96030.00;;;;5021451;28;20204;-81
2023/04/20 10:33:52;;;;;;;2.60;2.40;;;12.60;84.40;13.00;96019.00;;;;5020470;28;20222;-81
2023/04/20 10:36:29;;;;;;;2.87;2.67;;;12.70;83.70;13.10;96026.00;;;;5018350;28;20208;-81
2023/04/20 10:38:58;;;;;;;3.10;2.80;;;12.70;83.90;13.20;96023.00;;;;5018796;28;20202;-81
2023/04/20 10:41:27;;;;;;;2.83;2.63;;;12.80;84.70;13.20;96016.00;;;;5020966;28;20198;-81
2023/04/20 10:43:54;;;;;;;3.47;3.10;;;12.80;84.30;13.30;96012.00;;;;5023903;28;20286;-81
2023/04/20 10:46:23;;;;;;;3.63;3.07;;;12.90;84.10;13.30;96018.00;;;;5021314;28;22412;-81
2023/04/20 10:48:55;;;;;;;3.03;2.83;;;12.90;84.10;13.40;96005.00;;;;5018642;28;20233;-82
2023/04/20 10:51:24;;;;;;;3.13;2.93;;;13.00;83.90;13.40;96008.00;;;;5019056;28;20598;-81
2023/04/20 10:54:04;;;;;;;3.57;3.27;;;13.00;84.10;13.50;96010.00;;;;5012517;28;20230;-80
2023/04/20 10:56:42;;;;;;;3.50;3.30;;;13.10;83.10;13.60;96013.00;;;;5013822;28;20284;-80